createdAt,value
2018-12-22T00:02:34.539Z,9.50
2018-12-22T00:07:38.646Z,9.50
2018-12-22T00:12:42.738Z,9.60
2018-12-22T00:17:46.837Z,9.60
2018-12-22T00:22:50.958Z,9.60
2018-12-22T00:27:55.056Z,9.50
2018-12-22T00:32:59.154Z,9.50
2018-12-22T00:38:03.234Z,9.50
2018-12-22T00:43:07.343Z,9.50
2018-12-22T00:48:11.434Z,9.50
2018-12-22T00:53:15.522Z,9.50
2018-12-22T00:58:19.621Z,9.50
2018-12-22T01:03:23.735Z,9.40
2018-12-22T01:08:27.818Z,9.50
2018-12-22T01:13:31.923Z,9.50
2018-12-22T01:18:36.052Z,9.60
2018-12-22T01:23:40.178Z,9.70
2018-12-22T01:28:44.341Z,9.50
2018-12-22T01:33:48.446Z,9.50
2018-12-22T01:54:03.614Z,9.90
2018-12-22T01:59:07.711Z,9.90
2018-12-22T02:04:11.798Z,10.10
2018-12-22T02:14:19.835Z,10.00
2018-12-22T02:19:24.166Z,9.90
2018-12-22T02:24:28.259Z,9.80
2018-12-22T02:29:32.369Z,9.80
2018-12-22T02:34:36.490Z,9.90
2018-12-22T02:44:44.535Z,10.00
2018-12-22T02:49:48.655Z,10.10
2018-12-22T02:54:52.782Z,10.20
2018-12-22T02:59:56.902Z,10.20
2018-12-22T03:05:00.987Z,10.20
2018-12-22T03:15:09.235Z,10.00
2018-12-22T03:20:13.415Z,10.00
2018-12-22T03:25:17.531Z,10.00
2018-12-22T03:30:21.612Z,9.80
2018-12-22T03:40:29.625Z,9.40
2018-12-22T03:45:33.720Z,9.40
2018-12-22T03:50:38.063Z,9.30
2018-12-22T03:55:42.151Z,9.50
2018-12-22T04:00:46.241Z,9.50
2018-12-22T04:05:50.301Z,9.50
2018-12-22T04:10:55.015Z,9.40
2018-12-22T04:15:59.160Z,9.30
2018-12-22T04:21:03.245Z,9.30
2018-12-22T04:26:07.320Z,9.30
2018-12-22T04:31:11.394Z,9.20
2018-12-22T04:36:15.481Z,9.20
2018-12-22T04:46:23.286Z,9.40
2018-12-22T04:51:29.108Z,9.50
2018-12-22T04:56:33.187Z,9.50
2018-12-22T05:01:37.289Z,9.50
2018-12-22T05:06:41.612Z,9.50
2018-12-22T05:11:45.713Z,9.50
2018-12-22T05:16:49.806Z,9.50
2018-12-22T05:21:54.759Z,9.50
2018-12-22T05:26:58.851Z,9.40
2018-12-22T05:32:02.938Z,9.30
2018-12-22T05:37:07.026Z,9.30
2018-12-22T05:42:11.090Z,9.20
2018-12-22T05:47:15.163Z,9.20
2018-12-22T05:52:19.250Z,9.10
2018-12-22T05:57:23.323Z,9.00
2018-12-22T06:02:27.401Z,9.00
2018-12-22T06:07:31.482Z,9.00
2018-12-22T06:17:39.247Z,8.80
2018-12-22T06:22:43.318Z,9.00
2018-12-22T06:27:47.388Z,8.90
2018-12-22T06:32:51.458Z,8.70
2018-12-22T06:37:55.670Z,8.60
2018-12-22T06:42:59.827Z,8.40
2018-12-22T06:48:03.968Z,8.40
2018-12-22T06:58:11.727Z,8.20
2018-12-22T07:03:15.814Z,8.30
2018-12-22T07:08:19.906Z,8.30
2018-12-22T07:13:23.986Z,8.30
2018-12-22T07:18:28.086Z,8.20
2018-12-22T07:23:32.171Z,8.20
2018-12-22T07:28:36.237Z,8.10
2018-12-22T07:33:40.317Z,8.10
2018-12-22T07:43:48.111Z,8.10
2018-12-22T07:48:52.191Z,8.10
2018-12-22T07:59:00.034Z,7.90
2018-12-22T08:04:04.154Z,7.90
2018-12-22T08:09:08.522Z,7.90
2018-12-22T08:29:23.868Z,7.90
2018-12-22T08:34:28.028Z,7.90
2018-12-22T08:39:32.090Z,7.90
2018-12-22T08:44:36.618Z,7.90
2018-12-22T08:54:45.538Z,8.00
2018-12-22T08:59:49.702Z,8.00
2018-12-22T09:04:53.838Z,8.00
2018-12-22T09:09:57.930Z,7.90
2018-12-22T09:15:02.038Z,7.80
2018-12-22T09:20:08.761Z,7.80
2018-12-22T09:25:12.855Z,7.80
2018-12-22T09:30:17.029Z,7.90
2018-12-22T09:35:21.136Z,8.10
2018-12-22T09:40:25.335Z,8.20
2018-12-22T09:45:36.130Z,8.30
2018-12-22T09:50:40.199Z,8.40
2018-12-22T09:55:44.291Z,8.40
2018-12-22T10:05:52.047Z,8.60
2018-12-22T10:15:59.835Z,8.70
2018-12-22T10:21:03.921Z,8.70
2018-12-22T10:26:08.083Z,8.60
2018-12-22T10:31:18.026Z,8.50
2018-12-22T10:36:18.448Z,8.50
2018-12-22T10:41:22.526Z,8.60
2018-12-22T10:46:26.651Z,8.60
2018-12-22T10:51:30.733Z,8.90
2018-12-22T10:56:34.799Z,9.20
2018-12-22T11:01:38.879Z,9.50
2018-12-22T11:06:42.962Z,9.60
2018-12-22T11:11:47.045Z,9.80
2018-12-22T11:16:52.250Z,9.80
2018-12-22T11:32:03.735Z,9.70
2018-12-22T11:37:07.931Z,9.70
2018-12-22T11:47:27.609Z,9.80
2018-12-22T11:52:31.811Z,9.80
2018-12-22T11:57:35.977Z,9.90
2018-12-22T12:02:40.102Z,9.80
2018-12-22T12:07:44.244Z,9.80
2018-12-22T12:12:48.330Z,9.60
2018-12-22T12:20:02.622Z,9.40
2018-12-22T12:25:07.466Z,9.20
2018-12-22T12:30:11.647Z,9.20
2018-12-22T12:35:15.819Z,9.10
2018-12-22T12:40:20.144Z,9.00
2018-12-22T12:45:24.433Z,8.90
2018-12-22T12:50:28.546Z,8.90
2018-12-22T12:55:32.649Z,9.00
2018-12-22T13:00:36.792Z,9.10
2018-12-22T13:05:41.014Z,9.10
2018-12-22T13:10:45.096Z,9.10
2018-12-22T13:15:49.201Z,9.20
2018-12-22T13:20:53.555Z,9.20
2018-12-22T13:25:57.684Z,9.30
2018-12-22T13:31:01.800Z,9.30
2018-12-22T13:36:05.982Z,9.30
2018-12-22T13:41:10.065Z,9.40
2018-12-22T13:46:14.199Z,9.50
2018-12-22T13:51:18.451Z,9.50
2018-12-22T14:01:26.458Z,9.50
2018-12-22T14:06:34.161Z,9.60
2018-12-22T14:11:38.273Z,9.60
2018-12-22T14:17:17.542Z,9.40
2018-12-22T14:32:29.019Z,9.30
2018-12-22T14:37:33.093Z,9.10
2018-12-22T14:42:37.186Z,9.00
2018-12-22T14:47:41.310Z,8.90
2018-12-22T14:52:45.416Z,8.80
2018-12-22T14:57:53.266Z,8.60
2018-12-22T15:02:57.375Z,8.50
2018-12-22T15:08:01.582Z,8.30
2018-12-22T15:13:05.697Z,8.20
2018-12-22T15:18:09.802Z,8.10
2018-12-22T15:23:15.275Z,8.00
2018-12-22T15:28:19.377Z,7.90
2018-12-22T15:33:23.456Z,7.80
2018-12-22T15:38:27.543Z,7.70
2018-12-22T15:43:31.647Z,7.70
2018-12-22T16:08:56.903Z,7.60
2018-12-22T16:14:00.993Z,7.50
2018-12-22T16:19:05.218Z,7.50
2018-12-22T16:24:09.315Z,7.40
2018-12-22T16:29:28.309Z,7.50
2018-12-22T16:44:39.911Z,7.40
2018-12-22T16:49:43.997Z,7.40
2018-12-22T16:54:48.091Z,7.30
2018-12-22T16:59:52.582Z,7.30
2018-12-22T17:10:01.459Z,7.40
2018-12-22T17:15:07.267Z,7.50
2018-12-22T17:20:12.806Z,7.40
2018-12-22T17:30:25.601Z,7.70
2018-12-22T17:35:29.680Z,7.60
2018-12-22T17:40:33.782Z,7.60
2018-12-22T17:45:37.993Z,7.50
2018-12-22T17:50:42.081Z,7.40
2018-12-22T17:55:46.180Z,7.50
2018-12-22T18:00:50.406Z,7.50
2018-12-22T18:05:54.502Z,7.40
2018-12-22T18:10:58.594Z,7.30
2018-12-22T18:16:02.679Z,7.30
2018-12-22T18:21:06.783Z,7.30
2018-12-22T18:26:10.866Z,7.40
2018-12-22T18:31:15.044Z,7.30
2018-12-22T18:36:19.165Z,7.30
2018-12-22T18:41:23.250Z,7.30
2018-12-22T18:46:27.333Z,7.30
2018-12-22T19:01:38.822Z,7.30
2018-12-22T19:11:47.836Z,7.40
2018-12-22T19:16:51.936Z,7.40
2018-12-22T19:21:56.031Z,7.40
2018-12-22T19:27:00.115Z,7.30
2018-12-22T19:32:04.208Z,7.30
2018-12-22T19:37:08.284Z,7.30
2018-12-22T19:52:19.870Z,7.20
2018-12-22T20:02:27.765Z,7.20
2018-12-22T20:07:31.881Z,7.20
2018-12-22T20:12:35.986Z,7.10
2018-12-22T20:17:40.086Z,7.00
2018-12-22T20:22:44.169Z,7.00
2018-12-22T20:32:52.060Z,7.00
2018-12-22T20:37:56.171Z,7.10
2018-12-22T20:43:00.355Z,7.20
2018-12-22T20:48:04.458Z,7.20
2018-12-22T20:53:08.546Z,7.20
2018-12-22T20:58:12.642Z,7.20
2018-12-22T21:03:19.895Z,7.30
2018-12-22T21:08:24.018Z,7.30
2018-12-22T21:13:28.110Z,7.30
2018-12-22T21:18:32.197Z,7.40
2018-12-22T21:23:36.302Z,7.40
2018-12-22T21:28:40.395Z,7.40
2018-12-22T21:33:44.478Z,7.40
2018-12-22T21:38:48.610Z,7.40
2018-12-22T21:43:52.716Z,7.40
2018-12-22T21:59:04.247Z,7.50
2018-12-22T22:04:08.446Z,7.50
2018-12-22T22:14:16.355Z,7.40
2018-12-22T22:19:20.446Z,7.40
2018-12-22T22:24:24.534Z,7.40
2018-12-22T22:29:28.626Z,7.40
2018-12-22T22:34:32.708Z,7.30
2018-12-22T22:39:36.783Z,7.30
2018-12-22T22:44:40.874Z,7.30
2018-12-22T22:49:44.987Z,7.40
2018-12-22T22:54:49.067Z,7.40
2018-12-22T23:10:00.522Z,7.40
2018-12-22T23:15:04.858Z,7.40
2018-12-22T23:20:09.073Z,7.40
2018-12-22T23:25:13.300Z,7.30
2018-12-22T23:30:17.494Z,7.30
2018-12-22T23:45:29.008Z,7.30
2018-12-22T23:50:33.102Z,7.30
